Terminal Aerodrome Forecast
Issued by NWS

Home | Current Version | Previous Version | Text Only | Print | Product List | Glossary On
Versions: 1 2 3 4 5 6 7 8 9 10 11 12
000
FTUS45 KREV 292320
TAFCXP
TAF
KCXP 292320Z 3000/3024 25012G22KT P6SM SCT120
     FM300300 23006KT P6SM SCT150
     FM301700 24012G20KT P6SM SCT120 BKN150
     FM302000 24017G28KT P6SM SCT120 BKN150=

USA.gov is the U.S. government's official web portal to all federal, state and local government web resources and services.